Time;durP1;ratioP1;P1;durP2;ratioP2;P2;SDS_P1;SDS_P2;PMS_P1;PMS_P2;Temp;Humidity;BMP_temperature;BMP_pressure;BME280_temperature;BME280_humidity;BME280_pressure;Samples;Min_cycle;Max_cycle;Signal;HPM_P1;HPM_P2
2023/07/09 00:01:55;;;;;;;0.40;0.30;;;;;;;21.03;82.95;95623.44;5094468;28;20466;-65
2023/07/09 00:04:24;;;;;;;0.40;0.40;;;;;;;20.86;85.39;95627.84;5094445;28;20443;-65
2023/07/09 00:06:53;;;;;;;0.50;0.30;;;;;;;21.02;84.03;95627.25;5094227;28;20441;-65
2023/07/09 00:09:22;;;;;;;0.40;0.20;;;;;;;21.04;82.97;95631.22;5094777;28;20465;-65
2023/07/09 00:11:51;;;;;;;0.50;0.40;;;;;;;20.55;86.28;95629.25;5094002;28;20519;-65
2023/07/09 00:14:20;;;;;;;0.50;0.40;;;;;;;20.72;84.46;95621.13;5094519;28;20464;-65
2023/07/09 00:16:50;;;;;;;0.50;0.30;;;;;;;20.84;84.47;95623.91;5094360;28;20479;-65
2023/07/09 00:19:23;;;;;;;0.40;0.30;;;;;;;20.74;85.23;95610.78;5094359;28;20866;-65
2023/07/09 00:21:54;;;;;;;0.40;0.30;;;;;;;20.78;85.88;95627.88;5093792;28;20429;-65
2023/07/09 00:24:23;;;;;;;0.63;0.33;;;;;;;20.48;86.08;95632.47;5093486;28;20437;-64
2023/07/09 00:26:51;;;;;;;0.67;0.67;;;;;;;20.42;84.78;95628.38;5094304;28;20828;-66
2023/07/09 00:29:20;;;;;;;1.37;0.40;;;;;;;19.87;90.05;95632.97;5093555;28;20444;-65
2023/07/09 00:31:50;;;;;;;0.67;0.63;;;;;;;19.80;90.32;95628.06;5094223;28;20441;-66
2023/07/09 00:34:21;;;;;;;0.50;0.40;;;;;;;19.83;92.68;95616.69;5094385;28;20441;-66
2023/07/09 00:36:50;;;;;;;0.50;0.30;;;;;;;19.98;92.59;95613.47;5094101;28;20448;-65
2023/07/09 00:39:20;;;;;;;0.60;0.40;;;;;;;20.41;88.67;95624.13;5094278;28;20539;-66
2023/07/09 00:41:49;;;;;;;0.60;0.50;;;;;;;20.55;87.76;95618.50;5094315;28;20515;-66
2023/07/09 00:44:28;;;;;;;0.50;0.30;;;;;;;20.62;85.79;95616.06;5093504;28;20447;-65
2023/07/09 00:47:24;;;;;;;0.60;0.40;;;;;;;20.63;85.46;95623.84;5093636;28;20436;-65
2023/07/09 00:50:11;;;;;;;0.70;0.60;;;;;;;20.67;85.69;95621.31;5094210;28;20441;-66
2023/07/09 00:52:47;;;;;;;0.50;0.33;;;;;;;20.58;84.92;95615.16;5067646;28;20507;-66
2023/07/09 00:55:21;;;;;;;0.40;0.30;;;;;;;20.23;84.31;95552.63;5092538;28;20440;-66
2023/07/09 00:57:56;;;;;;;0.40;0.20;;;;;;;20.64;85.04;95611.97;5093736;28;20495;-65
2023/07/09 01:00:29;;;;;;;0.50;0.30;;;;;;;20.21;87.38;95614.81;5093238;28;20440;-65
2023/07/09 01:02:59;;;;;;;0.90;0.90;;;;;;;20.35;86.27;95613.84;5093658;28;20440;-65
2023/07/09 01:05:28;;;;;;;0.40;0.20;;;;;;;20.36;86.62;95610.84;5092977;28;20433;-65
2023/07/09 01:07:58;;;;;;;0.40;0.20;;;;;;;20.46;85.55;95612.38;5080834;28;20445;-67
2023/07/09 01:10:26;;;;;;;0.50;0.30;;;;;;;20.46;84.35;95615.06;5092766;28;20970;-67
2023/07/09 01:12:55;;;;;;;0.60;0.50;;;;;;;20.46;83.66;95626.63;5093482;28;20447;-66
2023/07/09 01:15:41;;;;;;;0.50;0.30;;;;;;;20.04;85.30;95625.63;5093215;28;20435;-66
2023/07/09 01:18:11;;;;;;;0.60;0.57;;;;;;;19.99;85.09;95609.66;5092776;28;21025;-66
2023/07/09 01:20:40;;;;;;;0.60;0.47;;;;;;;19.92;86.58;95624.72;5093240;28;20436;-66
2023/07/09 01:23:10;;;;;;;0.53;0.50;;;;;;;19.60;92.17;95618.00;5093402;28;20472;-66
2023/07/09 01:25:44;;;;;;;0.80;0.80;;;;;;;19.48;91.83;95624.00;5093082;28;21014;-65
2023/07/09 01:28:16;;;;;;;0.50;0.30;;;;;;;19.30;94.71;95624.31;5092787;28;20455;-66
2023/07/09 01:30:45;;;;;;;1.13;1.13;;;;;;;19.82;91.28;95623.16;5092234;28;20437;-62
2023/07/09 01:33:13;;;;;;;0.40;0.30;;;;;;;20.07;90.10;95630.38;5092554;28;20451;-66
2023/07/09 01:35:42;;;;;;;0.60;0.60;;;;;;;19.83;89.64;95632.81;5092794;28;21037;-66
2023/07/09 01:38:12;;;;;;;0.40;0.30;;;;;;;19.22;94.91;95608.97;5093096;28;20483;-67
2023/07/09 01:40:40;;;;;;;0.50;0.40;;;;;;;19.09;98.63;95621.44;5092615;28;20429;-65
2023/07/09 01:43:08;;;;;;;0.50;0.40;;;;;;;19.39;96.76;95630.47;5093159;28;20523;-66
2023/07/09 01:45:37;;;;;;;2.00;0.40;;;;;;;19.28;93.67;95551.25;5092553;28;20531;-65
2023/07/09 01:48:13;;;;;;;0.70;0.40;;;;;;;19.93;91.62;95629.00;5092525;28;20498;-66
2023/07/09 01:50:42;;;;;;;0.50;0.50;;;;;;;19.65;91.55;95636.66;5092721;28;20428;-65
2023/07/09 01:53:13;;;;;;;1.20;0.70;;;;;;;19.25;93.21;95635.97;5098765;28;20470;-66
2023/07/09 01:55:42;;;;;;;0.93;0.83;;;;;;;18.90;98.29;95645.91;5109443;28;20441;-65
2023/07/09 01:58:10;;;;;;;0.60;0.60;;;;;;;18.74;100.00;95644.78;5092219;28;20472;-65
2023/07/09 02:00:41;;;;;;;0.50;0.30;;;;;;;18.60;100.00;95652.16;5092245;28;20963;-66
2023/07/09 02:03:09;;;;;;;0.50;0.30;;;;;;;18.65;100.00;95643.16;5092865;28;20429;-65
2023/07/09 02:05:38;;;;;;;0.70;0.50;;;;;;;18.60;100.00;95654.03;5065696;28;20448;-66
2023/07/09 02:08:06;;;;;;;1.07;0.60;;;;;;;18.67;100.00;95647.09;5091772;28;20449;-66
2023/07/09 02:10:36;;;;;;;0.40;0.40;;;;;;;18.75;100.00;95648.22;5092073;28;20928;-66
2023/07/09 02:13:05;;;;;;;0.87;0.60;;;;;;;18.54;100.00;95653.41;5092188;28;20523;-66
2023/07/09 02:15:33;;;;;;;1.03;1.03;;;;;;;18.67;100.00;95652.47;5092349;28;20498;-66
2023/07/09 02:18:01;;;;;;;1.00;0.60;;;;;;;18.61;100.00;95653.75;5091914;28;20464;-66
2023/07/09 02:20:30;;;;;;;0.87;0.87;;;;;;;18.48;100.00;95660.00;5092301;28;21022;-66
2023/07/09 02:22:58;;;;;;;1.00;0.80;;;;;;;18.41;100.00;95665.00;5091488;28;20437;-66
2023/07/09 02:25:26;;;;;;;0.70;0.70;;;;;;;18.35;100.00;95661.66;5092467;28;20497;-66
2023/07/09 02:27:56;;;;;;;2.73;0.67;;;;;;;18.24;100.00;95663.03;5091474;28;20444;-66
2023/07/09 02:30:24;;;;;;;1.27;0.80;;;;;;;18.21;100.00;95676.28;5092444;28;20437;-67
2023/07/09 02:32:54;;;;;;;0.60;0.50;;;;;;;18.21;100.00;95671.72;5091742;28;20971;-66
2023/07/09 02:35:22;;;;;;;0.90;0.57;;;;;;;18.32;100.00;95680.25;5092274;28;21044;-66
2023/07/09 02:37:51;;;;;;;0.50;0.40;;;;;;;18.32;100.00;95674.91;5091729;28;20494;-67
2023/07/09 02:40:19;;;;;;;0.53;0.53;;;;;;;18.27;100.00;95680.41;5092218;28;20437;-67
2023/07/09 02:42:47;;;;;;;0.50;0.47;;;;;;;18.13;100.00;95685.06;5091413;28;20490;-68
2023/07/09 02:45:17;;;;;;;0.80;0.50;;;;;;;18.02;100.00;95683.72;5092010;28;20459;-68
2023/07/09 02:47:46;;;;;;;0.73;0.70;;;;;;;18.00;100.00;95683.25;5092018;28;20474;-68
2023/07/09 02:50:14;;;;;;;0.80;0.50;;;;;;;18.15;100.00;95686.34;5091412;28;20474;-66
2023/07/09 02:52:44;;;;;;;0.63;0.40;;;;;;;18.41;100.00;95683.78;5091709;28;20440;-68
2023/07/09 02:55:13;;;;;;;1.73;0.50;;;;;;;18.89;100.00;95689.19;5091602;28;20440;-68
2023/07/09 02:57:41;;;;;;;0.50;0.50;;;;;;;19.08;98.96;95687.03;5091805;28;20941;-68
2023/07/09 03:00:10;;;;;;;0.53;0.50;;;;;;;19.21;96.80;95688.00;5091188;28;20567;-68
2023/07/09 03:02:40;;;;;;;0.40;0.30;;;;;;;19.27;96.34;95692.91;5092270;28;20436;-67
2023/07/09 03:05:10;;;;;;;0.50;0.30;;;;;;;19.33;96.36;95690.84;5091664;28;20441;-67
2023/07/09 03:07:38;;;;;;;0.70;0.70;;;;;;;19.50;94.27;95685.53;5092082;28;20460;-66
2023/07/09 03:10:08;;;;;;;0.40;0.30;;;;;;;19.64;94.14;95689.63;5091539;28;20437;-67
2023/07/09 03:12:36;;;;;;;0.60;0.30;;;;;;;19.67;93.29;95698.97;5091361;28;20437;-67
2023/07/09 03:15:06;;;;;;;0.73;0.73;;;;;;;19.40;92.82;95693.91;5091239;28;20520;-65
2023/07/09 03:17:34;;;;;;;0.40;0.30;;;;;;;19.42;94.47;95710.50;5091573;28;20561;-66
2023/07/09 03:20:07;;;;;;;1.10;0.40;;;;;;;19.62;92.71;95699.13;5093419;28;20480;-65
2023/07/09 03:22:36;;;;;;;0.73;0.73;;;;;;;19.45;93.84;95702.59;5095619;28;20463;-65
2023/07/09 03:25:05;;;;;;;0.43;0.30;;;;;;;19.42;93.97;95702.44;5095430;28;20829;-66
2023/07/09 03:27:33;;;;;;;0.40;0.30;;;;;;;19.52;93.93;95702.13;5095797;28;20544;-65
2023/07/09 03:30:02;;;;;;;0.50;0.40;;;;;;;19.43;95.46;95707.50;5095642;28;20445;-66
2023/07/09 03:32:31;;;;;;;0.63;0.63;;;;;;;19.63;93.22;95714.16;5095219;28;20437;-65
2023/07/09 03:34:59;;;;;;;0.50;0.30;;;;;;;19.86;90.65;95704.03;5095336;28;20470;-65
2023/07/09 03:37:29;;;;;;;0.40;0.30;;;;;;;19.32;93.95;95705.41;5095118;28;20788;-65
2023/07/09 03:39:57;;;;;;;0.50;0.40;;;;;;;19.10;97.08;95698.22;5095106;28;20834;-66
2023/07/09 03:42:25;;;;;;;0.50;0.30;;;;;;;19.31;98.80;95709.19;5094779;28;20498;-65
2023/07/09 03:44:53;;;;;;;0.83;0.70;;;;;;;19.42;96.81;95703.22;5094931;28;20504;-65
2023/07/09 03:47:22;;;;;;;0.40;0.33;;;;;;;19.53;96.05;95707.19;5095400;28;20432;-64
2023/07/09 03:49:50;;;;;;;0.40;0.30;;;;;;;19.55;95.81;95696.13;5095228;28;20489;-64
2023/07/09 03:52:18;;;;;;;0.60;0.50;;;;;;;19.28;95.92;95707.13;5094567;28;20486;-65
2023/07/09 03:54:48;;;;;;;0.43;0.33;;;;;;;19.40;95.99;95718.91;5095008;28;20451;-65
2023/07/09 03:57:17;;;;;;;0.40;0.30;;;;;;;19.36;95.36;95707.13;5095172;28;20443;-64
2023/07/09 03:59:45;;;;;;;0.90;0.40;;;;;;;19.38;95.05;95704.19;5094388;28;20583;-65
2023/07/09 04:02:13;;;;;;;0.50;0.40;;;;;;;19.26;96.28;95714.72;5094738;28;20441;-64
2023/07/09 04:04:42;;;;;;;0.50;0.50;;;;;;;19.16;100.00;95707.75;5094929;28;20532;-66
2023/07/09 04:07:10;;;;;;;1.03;0.93;;;;;;;18.61;100.00;95722.75;5110388;28;20409;-65
2023/07/09 04:09:38;;;;;;;0.80;0.80;;;;;;;18.63;100.00;95718.66;5102477;28;20972;-66
2023/07/09 04:12:10;;;;;;;1.87;1.23;;;;;;;18.87;100.00;95694.88;5094968;28;20461;-65
2023/07/09 04:14:38;;;;;;;0.40;0.30;;;;;;;19.42;100.00;95710.50;5094732;28;20502;-65
2023/07/09 04:17:07;;;;;;;1.40;1.30;;;;;;;19.52;100.00;95713.69;5094665;28;20808;-65
2023/07/09 04:19:35;;;;;;;0.80;0.63;;;;;;;19.22;100.00;95713.75;5093956;28;20476;-65
2023/07/09 04:22:04;;;;;;;0.50;0.40;;;;;;;19.44;100.00;95709.09;5094713;28;20497;-66
2023/07/09 04:24:33;;;;;;;0.50;0.30;;;;;;;19.38;100.00;95704.19;5094248;28;20489;-64
2023/07/09 04:27:02;;;;;;;0.50;0.40;;;;;;;19.34;100.00;95703.19;5093742;28;20460;-65
2023/07/09 04:29:33;;;;;;;0.40;0.30;;;;;;;19.30;100.00;95707.63;5094402;28;20524;-65
2023/07/09 04:32:02;;;;;;;0.60;0.60;;;;;;;19.07;100.00;95692.72;5082749;28;20433;-64
2023/07/09 04:34:30;;;;;;;0.50;0.37;;;;;;;19.37;100.00;95703.38;5092830;28;20523;-65
2023/07/09 04:36:59;;;;;;;0.50;0.30;;;;;;;19.70;100.00;95702.91;5093782;28;20437;-65
2023/07/09 04:39:27;;;;;;;0.77;0.60;;;;;;;19.91;100.00;95711.94;5093723;28;20472;-65
2023/07/09 04:41:55;;;;;;;1.10;0.60;;;;;;;19.52;100.00;95716.38;5093807;28;20495;-65
2023/07/09 04:44:24;;;;;;;2.07;1.90;;;;;;;18.84;100.00;95721.56;5093631;28;20436;-65
2023/07/09 04:46:54;;;;;;;5.30;1.77;;;;;;;18.63;100.00;95718.66;5093756;28;20440;-65
2023/07/09 04:49:22;;;;;;;1.53;1.50;;;;;;;18.50;100.00;95716.84;5093751;28;20501;-65
2023/07/09 04:51:51;;;;;;;1.23;1.13;;;;;;;18.47;100.00;95720.16;5093335;28;20860;-65
2023/07/09 04:54:22;;;;;;;0.70;0.70;;;;;;;18.67;100.00;95722.28;5087217;28;20819;-65
2023/07/09 04:56:50;;;;;;;0.60;0.60;;;;;;;18.65;100.00;95724.50;5087703;28;20429;-63
2023/07/09 04:59:19;;;;;;;3.30;1.07;;;;;;;19.12;100.00;95722.13;5093319;28;20823;-64
2023/07/09 05:01:47;;;;;;;1.47;1.37;;;;;;;19.55;100.00;95726.50;5093481;28;20440;-63
2023/07/09 05:04:17;;;;;;;0.60;0.57;;;;;;;19.30;100.00;95726.44;5093322;28;20437;-63
2023/07/09 05:06:49;;;;;;;2.40;1.27;;;;;;;19.27;100.00;95735.91;5093228;28;20812;-63
2023/07/09 05:09:17;;;;;;;0.60;0.60;;;;;;;19.12;100.00;95732.88;5093081;28;20909;-64
2023/07/09 05:11:45;;;;;;;0.50;0.30;;;;;;;19.41;100.00;95730.41;5092857;28;20437;-62
2023/07/09 05:14:14;;;;;;;0.67;0.60;;;;;;;19.44;100.00;95727.09;5092897;28;20493;-63
2023/07/09 05:16:42;;;;;;;1.10;1.00;;;;;;;19.45;100.00;95732.19;5093282;28;20448;-63
2023/07/09 05:19:10;;;;;;;2.60;0.50;;;;;;;19.78;100.00;95721.75;5093358;28;20521;-63
2023/07/09 05:21:40;;;;;;;0.83;0.40;;;;;;;20.44;100.00;95725.75;5093255;28;20481;-62
2023/07/09 05:24:08;;;;;;;0.50;0.30;;;;;;;20.61;100.00;95723.03;5092900;28;20509;-61
2023/07/09 05:26:37;;;;;;;0.97;0.57;;;;;;;20.54;99.41;95705.81;5092859;28;20437;-62
2023/07/09 05:29:06;;;;;;;0.70;0.53;;;;;;;20.50;98.55;95721.00;5093067;28;20482;-61
2023/07/09 05:31:36;;;;;;;1.17;1.00;;;;;;;20.20;99.51;95725.50;5093012;28;20451;-62
2023/07/09 05:34:04;;;;;;;0.63;0.60;;;;;;;19.82;100.00;95730.75;5093167;28;20968;-61
2023/07/09 05:36:32;;;;;;;2.43;2.23;;;;;;;20.00;100.00;95726.16;5092884;28;21227;-62
2023/07/09 05:39:02;;;;;;;1.20;1.20;;;;;;;20.32;100.00;95722.16;5092635;28;20448;-61
2023/07/09 05:41:30;;;;;;;1.07;1.03;;;;;;;20.23;100.00;95722.19;5092266;28;20897;-62
2023/07/09 05:43:59;;;;;;;2.00;1.07;;;;;;;20.70;98.79;95720.28;5092683;28;20961;-60
2023/07/09 05:46:27;;;;;;;1.67;1.10;;;;;;;21.10;92.72;95716.16;5092492;28;20440;-61
2023/07/09 05:48:55;;;;;;;1.27;1.17;;;;;;;21.00;94.37;95716.50;5092213;28;20444;-59
2023/07/09 05:51:26;;;;;;;1.03;0.53;;;;;;;21.64;93.31;95719.00;5092786;28;20474;-60
2023/07/09 05:53:54;;;;;;;0.50;0.30;;;;;;;21.69;86.70;95718.78;5091618;28;20941;-60
2023/07/09 05:56:24;;;;;;;1.17;1.17;;;;;;;21.93;84.04;95718.94;5092050;28;20445;-60
2023/07/09 05:58:52;;;;;;;0.43;0.40;;;;;;;21.80;83.17;95711.88;5091560;28;20522;-60
2023/07/09 06:01:21;;;;;;;1.37;1.03;;;;;;;21.83;82.57;95730.88;5092001;28;20490;-60
2023/07/09 06:03:50;;;;;;;0.60;0.50;;;;;;;21.55;82.77;95727.16;5090940;28;20505;-60
2023/07/09 06:06:19;;;;;;;1.03;0.50;;;;;;;22.51;80.94;95716.00;5090971;28;20440;-59
2023/07/09 06:08:47;;;;;;;0.50;0.40;;;;;;;23.14;78.53;95716.50;5089928;28;20448;-60
2023/07/09 06:11:17;;;;;;;0.90;0.40;;;;;;;23.45;77.81;95697.78;5091096;28;20464;-59
2023/07/09 06:13:48;;;;;;;0.73;0.60;;;;;;;22.85;76.30;95705.91;5090811;28;20434;-60
2023/07/09 06:16:17;;;;;;;1.03;1.03;;;;;;;22.71;78.32;95709.75;5090976;28;20436;-59
2023/07/09 06:18:45;;;;;;;0.50;0.40;;;;;;;23.65;74.32;95704.16;5091049;28;20437;-60
2023/07/09 06:21:14;;;;;;;13.17;0.43;;;;;;;23.70;71.68;95695.81;5093418;28;20472;-60
2023/07/09 06:23:42;;;;;;;0.80;0.60;;;;;;;23.93;75.44;95700.34;5092452;28;20436;-59
2023/07/09 06:26:10;;;;;;;0.83;0.73;;;;;;;23.76;70.17;95684.38;5091845;28;20437;-59
2023/07/09 06:28:39;;;;;;;1.43;0.87;;;;;;;23.82;71.21;95688.44;5091781;28;20433;-60
2023/07/09 06:31:09;;;;;;;0.60;0.60;;;;;;;24.23;69.45;95691.91;5091712;28;20436;-60
2023/07/09 06:33:37;;;;;;;1.10;1.03;;;;;;;23.98;69.85;95686.53;5091950;28;20429;-60
2023/07/09 06:36:06;;;;;;;0.73;0.73;;;;;;;24.17;68.94;95687.84;5091483;28;20458;-60
2023/07/09 06:38:35;;;;;;;1.70;1.60;;;;;;;24.16;68.65;95684.34;5091685;28;20448;-59
2023/07/09 06:41:04;;;;;;;0.77;0.77;;;;;;;24.46;67.86;95682.81;5091826;28;20472;-59
2023/07/09 06:43:32;;;;;;;1.33;0.40;;;;;;;25.22;65.85;95685.09;5091676;28;20468;-59
2023/07/09 06:46:02;;;;;;;0.53;0.47;;;;;;;25.02;65.90;95686.16;5091545;28;20963;-59
2023/07/09 06:48:33;;;;;;;0.63;0.63;;;;;;;24.80;63.51;95678.69;5092125;28;20440;-59
2023/07/09 06:51:01;;;;;;;0.60;0.40;;;;;;;25.47;63.69;95679.47;5091126;28;20937;-60
2023/07/09 06:53:30;;;;;;;0.53;0.40;;;;;;;25.99;59.48;95679.78;5091647;28;20842;-60
2023/07/09 06:55:59;;;;;;;0.43;0.30;;;;;;;26.41;59.42;95675.16;5069671;28;20869;-60
2023/07/09 06:58:31;;;;;;;2.93;0.77;;;;;;;26.66;59.44;95672.09;5095275;28;20907;-61
2023/07/09 07:01:03;;;;;;;0.93;0.50;;;;;;;26.46;55.96;95665.94;5095358;28;20479;-62
2023/07/09 07:03:34;;;;;;;0.60;0.60;;;;;;;26.14;55.98;95665.34;5095982;28;20524;-61
2023/07/09 07:06:02;;;;;;;0.70;0.63;;;;;;;25.81;57.18;95660.41;5096139;28;20466;-62
2023/07/09 07:08:31;;;;;;;0.90;0.90;;;;;;;26.31;56.92;95661.41;5095229;28;20790;-61
2023/07/09 07:11:02;;;;;;;0.50;0.33;;;;;;;27.40;54.34;95638.69;5095520;28;20502;-61
2023/07/09 07:13:32;;;;;;;0.40;0.40;;;;;;;27.57;55.14;95651.78;5095432;28;20436;-61
2023/07/09 07:16:00;;;;;;;0.50;0.50;;;;;;;27.01;54.20;95653.66;5095282;28;20851;-63
2023/07/09 07:18:29;;;;;;;0.77;0.60;;;;;;;27.32;54.91;95661.53;5094945;28;20468;-62
2023/07/09 07:21:00;;;;;;;0.57;0.57;;;;;;;27.26;53.19;95654.81;5095591;28;20490;-63
2023/07/09 07:23:28;;;;;;;0.40;0.30;;;;;;;27.17;52.48;95648.88;5095425;28;20432;-62
2023/07/09 07:25:57;;;;;;;1.77;1.10;;;;;;;27.67;51.75;95642.97;5095759;28;20460;-62
2023/07/09 07:28:25;;;;;;;1.13;0.70;;;;;;;28.05;51.21;95630.97;5095936;28;20675;-62
2023/07/09 07:31:01;;;;;;;0.60;0.57;;;;;;;27.77;51.38;95635.28;5095276;28;20472;-61
2023/07/09 07:33:29;;;;;;;2.93;0.60;;;;;;;28.45;52.80;95627.47;5095114;28;21027;-62
2023/07/09 07:35:59;;;;;;;0.80;0.70;;;;;;;28.16;49.48;95631.84;5095249;28;20432;-63
2023/07/09 07:38:47;;;;;;;1.23;0.47;;;;;;;28.26;49.31;95624.94;5095269;28;20452;-65
2023/07/09 07:41:16;;;;;;;0.40;0.30;;;;;;;28.31;49.48;95625.38;5095006;28;20995;-66
2023/07/09 07:43:44;;;;;;;0.50;0.40;;;;;;;28.56;49.06;95620.19;5095222;28;20858;-65
2023/07/09 07:46:12;;;;;;;0.40;0.37;;;;;;;28.45;48.29;95627.47;5093536;28;21154;-65
2023/07/09 07:48:41;;;;;;;0.50;0.40;;;;;;;29.19;48.85;95613.66;5095033;28;20440;-64
2023/07/09 07:51:10;;;;;;;0.50;0.30;;;;;;;29.27;47.63;95624.25;5094792;28;20497;-66
2023/07/09 07:53:39;;;;;;;0.40;0.30;;;;;;;29.40;47.62;95614.56;5094579;28;20428;-66
2023/07/09 07:56:07;;;;;;;1.20;0.47;;;;;;;29.88;47.62;95615.19;5094541;28;20464;-67
2023/07/09 07:58:35;;;;;;;0.50;0.50;;;;;;;29.68;45.98;95610.44;5093745;28;20498;-66
2023/07/09 08:01:04;;;;;;;0.80;0.80;;;;;;;29.90;46.60;95603.91;5094553;28;20475;-67
2023/07/09 08:03:32;;;;;;;0.60;0.53;;;;;;;30.48;46.01;95614.59;5094883;28;20436;-66
2023/07/09 08:06:01;;;;;;;0.63;0.47;;;;;;;30.09;44.65;95590.66;5094268;28;20440;-66
2023/07/09 08:08:31;;;;;;;0.70;0.60;;;;;;;30.70;48.69;95594.25;5094982;28;20529;-65
2023/07/09 08:11:06;;;;;;;0.57;0.40;;;;;;;30.91;45.52;95594.28;5094297;28;20447;-65
2023/07/09 08:13:36;;;;;;;0.50;0.40;;;;;;;31.59;45.03;95592.19;5094215;28;20436;-64
2023/07/09 08:16:05;;;;;;;0.47;0.47;;;;;;;31.32;41.59;95589.13;5082361;28;20527;-66
2023/07/09 08:18:34;;;;;;;0.80;0.50;;;;;;;29.99;43.10;95593.38;5093627;28;20432;-66
2023/07/09 08:21:03;;;;;;;1.03;0.50;;;;;;;29.86;43.73;95584.75;5094069;28;20436;-66
2023/07/09 08:23:32;;;;;;;0.50;0.40;;;;;;;30.93;44.08;95575.50;5067626;28;20432;-66
2023/07/09 08:26:03;;;;;;;0.50;0.40;;;;;;;30.51;43.08;95576.28;5094021;28;20437;-65
2023/07/09 08:28:32;;;;;;;0.40;0.40;;;;;;;30.92;42.90;95540.31;5094452;28;20432;-66
2023/07/09 08:31:00;;;;;;;1.13;0.40;;;;;;;31.23;42.88;95575.06;5094448;28;20969;-66
2023/07/09 08:33:30;;;;;;;0.40;0.30;;;;;;;31.58;41.51;95558.53;5094699;28;20436;-66
2023/07/09 08:35:58;;;;;;;0.60;0.40;;;;;;;31.31;40.11;95560.94;5096795;28;20497;-66
2023/07/09 08:38:26;;;;;;;0.77;0.40;;;;;;;32.09;40.33;95557.09;5103758;28;20440;-64
2023/07/09 08:40:59;;;;;;;0.40;0.40;;;;;;;32.67;39.44;95562.59;5093866;28;20443;-65
2023/07/09 08:43:35;;;;;;;0.87;0.37;;;;;;;32.05;39.80;95556.34;5094151;28;21252;-66
2023/07/09 08:46:11;;;;;;;0.50;0.33;;;;;;;31.41;40.81;95562.09;5093767;28;20503;-65
2023/07/09 08:48:44;;;;;;;0.60;0.40;;;;;;;32.02;39.59;95557.94;5093992;28;20439;-65
2023/07/09 08:51:18;;;;;;;0.60;0.60;;;;;;;31.87;38.78;95557.22;5094125;28;20527;-66
2023/07/09 08:53:51;;;;;;;1.20;0.90;;;;;;;31.94;39.73;95559.13;5094172;28;20523;-65
2023/07/09 08:56:22;;;;;;;3.03;0.90;;;;;;;32.60;39.94;95554.41;5093773;28;20493;-67
2023/07/09 08:58:53;;;;;;;0.50;0.40;;;;;;;32.75;38.63;95549.56;5093179;28;20999;-66
2023/07/09 09:01:25;;;;;;;0.53;0.40;;;;;;;33.29;38.62;95551.41;5093791;28;20522;-64
2023/07/09 09:03:59;;;;;;;0.30;0.30;;;;;;;33.39;37.65;95530.50;5093409;28;20458;-66
2023/07/09 09:06:31;;;;;;;0.70;0.70;;;;;;;32.87;37.55;95541.63;5093754;28;20439;-65
2023/07/09 09:09:07;;;;;;;0.50;0.40;;;;;;;33.35;39.12;95544.28;5093201;28;20947;-66
2023/07/09 09:11:44;;;;;;;0.50;0.30;;;;;;;33.04;37.63;95542.66;5093427;28;21001;-66
2023/07/09 09:14:28;;;;;;;0.60;0.60;;;;;;;32.81;38.50;95543.25;5093377;28;20428;-66
2023/07/09 09:16:58;;;;;;;0.37;0.33;;;;;;;33.61;37.85;95545.56;5092403;28;20562;-66
2023/07/09 09:19:30;;;;;;;0.50;0.40;;;;;;;33.17;38.16;95540.94;5092719;28;20435;-65
2023/07/09 09:22:04;;;;;;;0.80;0.80;;;;;;;33.27;35.82;95490.59;5093441;28;20840;-65
2023/07/09 09:24:37;;;;;;;0.40;0.30;;;;;;;33.91;36.84;95523.56;5092993;28;20431;-64
2023/07/09 09:27:09;;;;;;;0.50;0.50;;;;;;;33.91;35.71;95492.50;5093049;28;20846;-65
2023/07/09 09:29:37;;;;;;;0.40;0.40;;;;;;;34.47;35.78;95539.25;5092478;28;20440;-66
2023/07/09 09:32:21;;;;;;;0.50;0.50;;;;;;;32.25;37.88;95546.44;5092534;28;20867;-67
2023/07/09 09:34:49;;;;;;;0.50;0.50;;;;;;;32.03;37.46;95536.78;5092048;28;20445;-67
2023/07/09 09:37:27;;;;;;;3.20;1.27;;;;;;;32.19;35.80;95539.78;5091899;28;20513;-67
2023/07/09 09:39:56;;;;;;;0.50;0.40;;;;;;;32.66;35.42;95527.31;5092805;28;20934;-66
2023/07/09 09:42:45;;;;;;;0.80;0.80;;;;;;;33.34;35.10;95520.75;5092687;28;20479;-65
2023/07/09 09:45:17;;;;;;;0.40;0.30;;;;;;;32.64;33.55;95522.22;5092644;28;20444;-66
2023/07/09 09:47:46;;;;;;;0.50;0.50;;;;;;;33.21;34.33;95519.72;5092897;28;20432;-66
2023/07/09 09:50:15;;;;;;;0.40;0.30;;;;;;;33.58;33.24;95513.41;5092651;28;20496;-65
2023/07/09 09:52:46;;;;;;;0.40;0.30;;;;;;;33.84;35.02;95513.44;5092285;28;20432;-66
2023/07/09 09:55:20;;;;;;;0.93;0.50;;;;;;;33.00;35.42;95465.75;5092105;28;20436;-64
2023/07/09 09:57:55;;;;;;;1.23;0.63;;;;;;;33.40;35.78;95505.34;5083940;28;20456;-67
2023/07/09 10:00:25;;;;;;;0.40;0.30;;;;;;;33.78;35.14;95468.34;5088756;28;20236;-66
2023/07/09 10:02:58;;;;;;;0.80;0.50;;;;;;;33.95;35.11;95494.03;5092603;28;20459;-66
2023/07/09 10:05:33;;;;;;;0.40;0.40;;;;;;;34.03;34.82;95489.97;5092164;28;20439;-65
2023/07/09 10:08:10;;;;;;;0.63;0.60;;;;;;;34.97;34.54;95466.78;5092541;28;20288;-65
2023/07/09 10:10:40;;;;;;;0.50;0.47;;;;;;;35.05;35.35;95493.81;5092384;28;20204;-68
2023/07/09 10:13:22;;;;;;;0.60;0.43;;;;;;;34.17;35.17;95481.53;5091968;28;20635;-67
2023/07/09 10:16:02;;;;;;;0.50;0.40;;;;;;;33.66;35.60;95490.13;5092514;28;20225;-67
2023/07/09 10:18:48;;;;;;;0.70;0.50;;;;;;;33.13;35.51;95491.53;5092201;28;20200;-66
2023/07/09 10:21:22;;;;;;;0.60;0.40;;;;;;;33.59;36.33;95477.25;5092084;28;20204;-65
2023/07/09 10:24:03;;;;;;;0.50;0.40;;;;;;;33.63;36.45;95447.75;5092509;28;20209;-66
2023/07/09 10:26:37;;;;;;;0.40;0.40;;;;;;;33.61;35.48;95441.88;5091426;28;20190;-66
2023/07/09 10:29:35;;;;;;;0.60;0.60;;;;;;;33.57;34.76;95476.13;5091642;28;20201;-67
2023/07/09 10:32:21;;;;;;;0.40;0.40;;;;;;;33.97;34.19;95471.59;5072795;28;20650;-65
2023/07/09 10:34:56;;;;;;;0.67;0.57;;;;;;;34.55;32.25;95465.59;5092017;28;20194;-66
2023/07/09 10:37:45;;;;;;;0.50;0.50;;;;;;;34.43;31.77;95463.44;5091808;28;20272;-65
2023/07/09 10:40:17;;;;;;;0.43;0.40;;;;;;;34.64;31.41;95457.56;5092116;28;20197;-65
2023/07/09 10:42:48;;;;;;;0.50;0.40;;;;;;;34.78;32.05;95457.31;5091988;28;20278;-65
2023/07/09 10:45:24;;;;;;;0.40;0.30;;;;;;;34.19;29.46;95404.84;5091663;28;20189;-65
2023/07/09 10:48:00;;;;;;;0.40;0.40;;;;;;;33.90;29.51;95431.25;5091827;28;20193;-65
2023/07/09 10:50:33;;;;;;;0.40;0.30;;;;;;;35.39;32.46;95460.47;5091258;28;20228;-65
2023/07/09 10:53:10;;;;;;;0.60;0.30;;;;;;;34.88;33.74;95466.56;5092628;28;20197;-65
2023/07/09 10:55:44;;;;;;;0.30;0.30;;;;;;;35.38;33.93;95442.38;5096880;28;20189;-66
2023/07/09 10:58:25;;;;;;;0.57;0.53;;;;;;;35.20;32.50;95447.47;5091874;28;20212;-65
2023/07/09 11:00:56;;;;;;;0.50;0.40;;;;;;;34.88;33.71;95450.06;5092059;28;20201;-65
2023/07/09 11:03:36;;;;;;;0.60;0.40;;;;;;;34.49;33.50;95456.22;5091335;28;20209;-65
2023/07/09 11:06:05;;;;;;;0.50;0.50;;;;;;;34.55;31.79;95445.56;5091458;28;20193;-65
2023/07/09 11:08:38;;;;;;;2.10;0.37;;;;;;;34.91;34.69;95447.25;5091769;28;20221;-65
2023/07/09 11:11:12;;;;;;;0.40;0.30;;;;;;;35.18;32.36;95440.81;5091368;28;20646;-64
2023/07/09 11:13:44;;;;;;;0.40;0.40;;;;;;;35.46;33.13;95434.72;5091369;28;20208;-64
2023/07/09 11:16:28;;;;;;;0.63;0.63;;;;;;;34.33;33.68;95445.88;5091585;28;20240;-65
2023/07/09 11:19:01;;;;;;;0.40;0.30;;;;;;;35.59;34.69;95432.88;5091337;28;20193;-64
2023/07/09 11:21:30;;;;;;;0.40;0.40;;;;;;;34.98;33.09;95433.31;5090786;28;20258;-63
2023/07/09 11:24:00;;;;;;;1.53;0.43;;;;;;;34.58;34.12;95414.44;5091174;28;20220;-65
2023/07/09 11:26:31;;;;;;;0.60;0.30;;;;;;;34.82;32.77;95424.19;5091685;28;20248;-64
2023/07/09 11:29:15;;;;;;;0.30;0.30;;;;;;;35.66;32.69;95418.94;5091693;28;20635;-65
2023/07/09 11:31:47;;;;;;;0.60;0.60;;;;;;;34.35;32.45;95427.00;5091751;28;20245;-64
2023/07/09 11:34:19;;;;;;;0.50;0.40;;;;;;;35.26;32.47;95417.44;5091245;28;20189;-65
2023/07/09 11:36:50;;;;;;;0.40;0.30;;;;;;;36.02;32.77;95418.91;5091178;28;20701;-64
2023/07/09 11:39:24;;;;;;;0.43;0.30;;;;;;;36.40;32.37;95414.41;5091399;28;20243;-65
2023/07/09 11:41:52;;;;;;;0.83;0.30;;;;;;;35.81;35.01;95411.09;5095431;28;20193;-64
2023/07/09 11:44:25;;;;;;;0.83;0.83;;;;;;;36.37;33.40;95408.97;5095182;28;20210;-64
2023/07/09 11:47:23;;;;;;;0.52;0.50;;;;;;;36.59;32.96;95404.47;5094975;28;20247;-65
2023/07/09 11:49:57;;;;;;;0.40;0.30;;;;;;;36.25;32.24;95405.72;5076039;28;20201;-64